Tropical Cyclones
[Index]
Main Index Home Page Stock Weather Photos Extreme Storms Discussion Storm News and Storm Chasing Reports Tropical Cyclones / Hurricanes / Typhoons Weather Data and Links Wild Fires / Bushfires Weather Observation Techniques Weather Picture Catalogue Tornado Pictures and Reports Stock Video Footage and DVDs for sale
Season 2002-2003 Tropical Cyclone HARRIET Track Map
Season 2002-2003 Summaries: [BoM-AU] [JTWC-AU] [JTWC-SIO] [JTWC-SPAC] [JTWC-SH]
<<- Previous TC | BoM 2002-2003 Season | Next TC ->>

click for intensity scale information  Lat/long Grid: Show Hide

 Date Labels: Show Hide

Bureau of Meteorology Tropical Cyclone Data

Name: HARRIET
Number: 864 / 200203_04

01 Mar 2003 18:00 UTC to 11 Mar 2003 00:00 UTC

    date/time    lat    long    hPa   cat  kts
2003-03-01 18   13.4   105.5   1000         20          
2003-03-02 00   13.8   106.3    998         25          
2003-03-02 06   14.2   107.2    996         25          
2003-03-02 12   14.4   108.0    995    1    30          
2003-03-02 18   14.6   108.7    995    1    30          
2003-03-03 00   14.7   109.5    995    1    30          
2003-03-03 06   14.7   110.1    992    1    30          
2003-03-03 12   14.7   110.9    992    1    35          
2003-03-03 18   14.7   111.5    992    1    35          
2003-03-04 00   14.7   112.2    992    1    35          
2003-03-04 06   14.8   113.0    990    1    35          
2003-03-04 12   14.8   113.9    990    1    35          
2003-03-04 18   15.1   114.5    990    1    35          
2003-03-05 00   15.9   114.7    990    1    35          
2003-03-05 06   16.2   115.3    992    1    30          
2003-03-05 12   16.9   116.0    992    1    30          
2003-03-05 18   17.7   116.0    992    1    30          
2003-03-06 00   18.4   115.7    990    1    35          
2003-03-06 06   18.7   115.3    990    1    35          
2003-03-06 12   18.8   115.0    992    1    30          
2003-03-06 18   18.9   114.7    992    1    30          
2003-03-07 00   18.9   114.5    992    1    30          
2003-03-07 06   19.0   114.2    990    1    35          
2003-03-07 12   19.2   113.9    990    1    35          
2003-03-07 18   19.3   113.6    990    1    35          
2003-03-08 00   19.4   113.3    988    1    40          
2003-03-08 06   19.8   112.8    988    1    40          
2003-03-08 12   20.3   112.3    985    2    45          
2003-03-08 18   20.9   111.2    985    2    45          
2003-03-09 00   21.5   110.3    988    1    40          
2003-03-09 06   22.4   109.3    990    1    35          
2003-03-09 12   23.7   108.3    992    1    35          
2003-03-09 18   25.1   107.6    994    1    35          
2003-03-10 00   26.6   107.2    996         35          
2003-03-10 06   28.3   107.8    998         35          
2003-03-10 12   29.9   109.0    998         35          
2003-03-10 18   32.5   110.8    998         35          
2003-03-11 00   35.4   113.4   1000         25          
Winds are 10-min average.

Tropical cyclone tracks developed by Michael Bath using data from the Bureau of Meteorology and Google Maps.


[Australian Severe Weather index] [Copyright Notice] [Email Contacts] [Search This Site] [Privacy Policy]
Document: tropical_cyclone_harriet.htm Updated: 29 June 2017